createdAt,value
2022-10-31T00:01:20.638Z,11.43
2022-10-31T00:03:48.621Z,10.73
2022-10-31T00:06:19.132Z,10.27
2022-10-31T00:08:47.472Z,10.70
2022-10-31T00:11:14.352Z,10.50
2022-10-31T00:13:41.344Z,11.20
2022-10-31T00:16:15.322Z,10.10
2022-10-31T00:18:42.281Z,10.20
2022-10-31T00:21:09.228Z,10.00
2022-10-31T00:23:36.225Z,10.40
2022-10-31T00:26:05.006Z,10.60
2022-10-31T00:28:33.300Z,11.90
2022-10-31T00:31:05.344Z,11.23
2022-10-31T00:33:35.131Z,11.27
2022-10-31T00:36:02.167Z,10.40
2022-10-31T00:38:29.179Z,11.43
2022-10-31T00:40:56.202Z,10.97
2022-10-31T00:43:23.124Z,11.00
2022-10-31T00:45:50.038Z,10.80
2022-10-31T00:48:17.111Z,10.90
2022-10-31T00:50:44.059Z,11.87
2022-10-31T00:53:10.986Z,10.87
2022-10-31T00:55:37.870Z,9.70
2022-10-31T00:58:05.085Z,10.80
2022-10-31T01:00:32.281Z,11.10
2022-10-31T01:02:59.514Z,10.87
2022-10-31T01:05:26.735Z,11.63
2022-10-31T01:07:53.604Z,11.87
2022-10-31T01:10:20.465Z,10.80
2022-10-31T01:12:49.155Z,12.33
2022-10-31T01:15:21.105Z,11.53
2022-10-31T01:17:48.711Z,12.00
2022-10-31T01:20:16.655Z,12.60
2022-10-31T01:22:43.708Z,11.70
2022-10-31T01:25:13.504Z,11.50
2022-10-31T01:27:40.454Z,11.37
2022-10-31T01:30:08.125Z,11.67
2022-10-31T01:32:35.198Z,11.57
2022-10-31T01:35:02.170Z,9.80
2022-10-31T01:37:29.045Z,11.00
2022-10-31T01:39:55.906Z,10.60
2022-10-31T01:42:24.358Z,11.17
2022-10-31T01:44:53.828Z,11.87
2022-10-31T01:47:27.844Z,11.07
2022-10-31T01:49:58.758Z,10.17
2022-10-31T01:52:37.700Z,10.60
2022-10-31T01:55:12.688Z,11.97
2022-10-31T01:57:43.185Z,12.60
2022-10-31T02:00:11.625Z,10.40
2022-10-31T02:02:39.137Z,10.97
2022-10-31T02:05:10.327Z,9.97
2022-10-31T02:08:12.134Z,10.93
2022-10-31T02:10:39.286Z,11.70
2022-10-31T02:13:08.376Z,11.53
2022-10-31T02:15:37.379Z,10.27
2022-10-31T02:18:05.626Z,11.07
2022-10-31T02:20:49.270Z,12.03
2022-10-31T02:23:54.315Z,10.87
2022-10-31T02:27:07.452Z,10.30
2022-10-31T02:30:15.460Z,10.50
2022-10-31T02:33:13.115Z,11.03
2022-10-31T02:36:05.783Z,10.97
2022-10-31T02:39:34.766Z,12.50
2022-10-31T02:42:36.582Z,11.83
2022-10-31T02:45:33.197Z,11.97
2022-10-31T02:48:04.545Z,12.20
2022-10-31T02:50:35.199Z,12.77
2022-10-31T02:53:03.187Z,12.73
2022-10-31T02:55:50.253Z,13.00
2022-10-31T02:58:22.385Z,11.97
2022-10-31T03:01:26.409Z,12.80
2022-10-31T03:04:48.993Z,11.17
2022-10-31T03:07:54.264Z,13.43
2022-10-31T03:10:37.490Z,13.90
2022-10-31T03:13:25.715Z,14.17
2022-10-31T03:16:13.046Z,13.20
2022-10-31T03:18:51.586Z,13.70
2022-10-31T03:21:28.445Z,13.50
2022-10-31T03:23:57.800Z,14.60
2022-10-31T03:26:26.619Z,14.33
2022-10-31T03:29:02.859Z,14.60
2022-10-31T03:31:42.027Z,12.97
2022-10-31T03:34:11.114Z,14.07
2022-10-31T03:36:46.015Z,13.43
2022-10-31T03:39:15.710Z,12.83
2022-10-31T03:41:52.654Z,12.80
2022-10-31T03:44:22.664Z,12.00
2022-10-31T03:46:52.148Z,12.93
2022-10-31T03:49:19.114Z,12.70
2022-10-31T03:51:59.144Z,13.27
2022-10-31T03:54:55.370Z,12.80
2022-10-31T03:57:37.462Z,13.57
2022-10-31T04:00:14.141Z,13.50
2022-10-31T04:02:46.677Z,13.30
2022-10-31T04:05:18.435Z,13.87
2022-10-31T04:07:48.637Z,13.73
2022-10-31T04:10:17.647Z,13.50
2022-10-31T04:12:48.570Z,12.37
2022-10-31T04:15:15.776Z,15.70
2022-10-31T04:17:46.316Z,14.13
2022-10-31T04:20:17.550Z,13.23
2022-10-31T04:22:47.548Z,14.50
2022-10-31T04:25:14.513Z,16.33
2022-10-31T04:27:41.414Z,16.27
2022-10-31T04:30:09.147Z,14.80
2022-10-31T04:32:36.035Z,15.27
2022-10-31T04:35:03.050Z,15.90
2022-10-31T04:37:32.766Z,14.50
2022-10-31T04:39:59.602Z,15.17
2022-10-31T04:42:26.481Z,16.83
2022-10-31T04:44:57.497Z,15.63
2022-10-31T04:47:24.525Z,14.97
2022-10-31T04:49:51.354Z,15.03
2022-10-31T04:52:20.027Z,14.60
2022-10-31T04:54:51.156Z,14.67
2022-10-31T04:57:18.008Z,15.40
2022-10-31T04:59:50.646Z,16.07
2022-10-31T05:02:17.622Z,15.37
2022-10-31T05:04:44.496Z,14.83
2022-10-31T05:07:11.428Z,16.83
2022-10-31T05:09:38.589Z,14.87
2022-10-31T05:12:10.871Z,15.00
2022-10-31T05:14:37.688Z,16.00
2022-10-31T05:17:04.564Z,16.37
2022-10-31T05:19:31.495Z,15.43
2022-10-31T05:22:01.298Z,16.33
2022-10-31T05:24:28.235Z,17.30
2022-10-31T05:26:57.982Z,15.80
2022-10-31T05:29:24.923Z,15.33
2022-10-31T05:31:51.820Z,15.43
2022-10-31T05:34:18.867Z,18.23
2022-10-31T05:36:45.927Z,17.10
2022-10-31T05:39:14.498Z,16.53
2022-10-31T05:41:41.442Z,17.87
2022-10-31T05:44:08.380Z,15.67
2022-10-31T05:46:35.377Z,18.70
2022-10-31T05:49:02.974Z,19.37
2022-10-31T05:51:30.601Z,18.67
2022-10-31T05:53:57.448Z,18.83
2022-10-31T05:56:24.320Z,18.40
2022-10-31T05:58:51.223Z,18.60
2022-10-31T06:01:19.436Z,18.40
2022-10-31T06:03:46.532Z,17.47
2022-10-31T06:06:14.477Z,17.10
2022-10-31T06:08:41.673Z,15.67
2022-10-31T06:11:08.535Z,18.07
2022-10-31T06:13:35.472Z,16.83
2022-10-31T06:16:02.512Z,18.70
2022-10-31T06:18:29.329Z,17.87
2022-10-31T06:20:56.298Z,17.23
2022-10-31T06:23:23.139Z,18.67
2022-10-31T06:25:51.425Z,16.73
2022-10-31T06:28:18.685Z,18.20
2022-10-31T06:30:46.351Z,25.80
2022-10-31T06:33:13.240Z,35.23
2022-10-31T06:35:45.515Z,39.07
2022-10-31T06:38:12.496Z,38.40
2022-10-31T06:40:39.460Z,37.80
2022-10-31T06:43:06.394Z,41.40
2022-10-31T06:45:33.331Z,26.40
2022-10-31T06:48:17.550Z,22.70
2022-10-31T06:50:45.058Z,21.30
2022-10-31T06:53:12.376Z,19.47
2022-10-31T06:55:39.498Z,18.47
2022-10-31T06:58:06.721Z,17.83
2022-10-31T07:00:37.438Z,17.60
2022-10-31T07:03:07.192Z,16.10
2022-10-31T07:05:34.333Z,17.90
2022-10-31T07:08:04.139Z,19.40
2022-10-31T07:10:37.247Z,32.03
2022-10-31T07:13:10.746Z,40.03
2022-10-31T07:15:39.236Z,32.77
2022-10-31T07:18:08.435Z,30.50
2022-10-31T07:20:35.984Z,32.30
2022-10-31T07:23:03.474Z,29.47
2022-10-31T07:25:30.751Z,34.37
2022-10-31T07:27:57.842Z,32.87
2022-10-31T07:30:25.020Z,29.40
2022-10-31T07:32:52.394Z,29.33
2022-10-31T07:35:21.980Z,27.53
2022-10-31T07:37:49.777Z,32.07
2022-10-31T07:40:24.648Z,30.33
2022-10-31T07:42:55.289Z,30.07
2022-10-31T07:45:22.567Z,25.33
2022-10-31T07:47:53.809Z,24.70
2022-10-31T07:50:31.419Z,23.80
2022-10-31T07:53:07.071Z,20.70
2022-10-31T07:55:34.539Z,20.37
2022-10-31T07:58:08.551Z,18.97
2022-10-31T08:00:36.841Z,16.47
2022-10-31T08:03:05.171Z,17.63
2022-10-31T08:05:33.020Z,21.90
2022-10-31T08:08:00.186Z,24.77
2022-10-31T08:10:28.196Z,27.20
2022-10-31T08:13:04.220Z,26.90
2022-10-31T08:15:31.535Z,37.10
2022-10-31T08:17:59.297Z,35.20
2022-10-31T08:20:26.428Z,34.00
2022-10-31T08:23:12.638Z,26.43
2022-10-31T08:25:39.887Z,15.20
2022-10-31T08:28:07.899Z,16.33
2022-10-31T08:30:36.586Z,15.20
2022-10-31T08:33:06.429Z,14.90
2022-10-31T08:35:34.551Z,14.03
2022-10-31T08:38:02.684Z,11.43
2022-10-31T08:40:31.328Z,13.83
2022-10-31T08:43:03.350Z,12.83
2022-10-31T08:45:32.843Z,15.17
2022-10-31T08:48:05.227Z,14.47
2022-10-31T08:50:34.292Z,15.33
2022-10-31T08:53:09.161Z,15.83
2022-10-31T08:55:37.443Z,15.07
2022-10-31T08:58:10.486Z,15.43
2022-10-31T09:00:37.722Z,17.50
2022-10-31T09:03:14.129Z,23.30
2022-10-31T09:05:41.321Z,18.00
2022-10-31T09:08:14.779Z,15.40
2022-10-31T09:10:43.370Z,15.20
2022-10-31T09:13:18.618Z,16.10
2022-10-31T09:15:49.354Z,17.70
2022-10-31T09:18:19.251Z,16.43
2022-10-31T09:20:48.024Z,16.90
2022-10-31T09:23:20.434Z,15.80
2022-10-31T09:25:51.268Z,14.80
2022-10-31T09:28:21.005Z,15.97
2022-10-31T09:30:49.730Z,16.90
2022-10-31T09:33:16.603Z,14.77
2022-10-31T09:35:43.918Z,16.40
2022-10-31T09:38:13.175Z,16.03
2022-10-31T09:40:42.450Z,15.30
2022-10-31T09:44:06.541Z,15.07
2022-10-31T09:47:19.026Z,16.30
2022-10-31T09:50:27.324Z,16.70
2022-10-31T09:53:16.429Z,17.73
2022-10-31T09:56:36.503Z,16.83
2022-10-31T09:59:06.038Z,16.90
2022-10-31T10:01:57.506Z,15.13
2022-10-31T10:04:43.712Z,16.90
2022-10-31T10:07:42.790Z,16.40
2022-10-31T10:10:33.858Z,16.23
2022-10-31T10:13:40.374Z,15.53
2022-10-31T10:16:59.858Z,15.57
2022-10-31T10:19:41.403Z,17.53
2022-10-31T10:22:52.913Z,18.47
2022-10-31T10:25:34.693Z,17.90
2022-10-31T10:28:28.356Z,18.77
2022-10-31T10:31:11.432Z,17.37
2022-10-31T10:34:27.368Z,18.10
2022-10-31T10:37:11.022Z,17.70
2022-10-31T10:39:42.207Z,20.30
2022-10-31T10:42:32.716Z,18.60
2022-10-31T10:45:18.844Z,19.60
2022-10-31T10:47:56.203Z,19.63
2022-10-31T10:50:34.899Z,20.30
2022-10-31T10:54:04.171Z,20.60
2022-10-31T10:57:14.272Z,20.23
2022-10-31T10:59:41.312Z,18.53
2022-10-31T11:02:24.239Z,18.83
2022-10-31T11:04:56.672Z,17.83
2022-10-31T11:07:23.667Z,19.33
2022-10-31T11:09:50.729Z,20.27
2022-10-31T11:12:22.918Z,18.37
2022-10-31T11:15:01.201Z,19.13
2022-10-31T11:17:39.010Z,19.33
2022-10-31T11:20:26.864Z,18.50
2022-10-31T11:23:04.047Z,19.90
2022-10-31T11:25:30.969Z,19.07
2022-10-31T11:28:10.739Z,18.30
2022-10-31T11:30:55.635Z,18.30
2022-10-31T11:33:35.264Z,19.80
2022-10-31T11:36:35.058Z,19.00
2022-10-31T11:39:04.428Z,17.80
2022-10-31T11:41:34.763Z,17.93
2022-10-31T11:44:15.965Z,16.20
2022-10-31T11:46:57.096Z,17.60
2022-10-31T11:49:35.813Z,19.23
2022-10-31T11:52:07.590Z,16.50
2022-10-31T11:54:54.321Z,18.30
2022-10-31T11:57:33.207Z,19.03
2022-10-31T12:00:02.207Z,17.40
2022-10-31T12:02:29.174Z,16.90
2022-10-31T12:05:23.474Z,18.47
2022-10-31T12:07:50.835Z,17.57
2022-10-31T12:10:20.443Z,17.63
2022-10-31T12:13:18.827Z,16.50
2022-10-31T12:15:55.370Z,16.77
2022-10-31T12:19:06.529Z,18.80
2022-10-31T12:22:03.432Z,18.13
2022-10-31T12:25:11.920Z,17.40
2022-10-31T12:28:16.108Z,17.57
2022-10-31T12:30:51.514Z,18.30
2022-10-31T12:34:02.671Z,19.47
2022-10-31T12:37:04.143Z,18.50
2022-10-31T12:40:21.977Z,20.97
2022-10-31T12:43:25.840Z,18.60
2022-10-31T12:45:59.092Z,19.20
2022-10-31T12:49:06.532Z,19.00
2022-10-31T12:52:02.120Z,21.47
2022-10-31T12:55:10.437Z,21.17
2022-10-31T12:57:59.740Z,20.00
2022-10-31T13:00:30.495Z,21.00
2022-10-31T13:06:20.319Z,23.13
2022-10-31T13:09:02.677Z,19.77
2022-10-31T13:11:34.918Z,21.40
2022-10-31T13:14:27.829Z,23.33
2022-10-31T13:16:56.811Z,19.97
2022-10-31T13:19:28.713Z,21.40
2022-10-31T13:22:22.399Z,19.97
2022-10-31T13:25:03.076Z,22.73
2022-10-31T13:27:41.996Z,24.90
2022-10-31T13:30:19.278Z,22.17
2022-10-31T13:33:00.863Z,23.23
2022-10-31T13:35:44.665Z,21.60
2022-10-31T13:38:53.062Z,20.00
2022-10-31T13:41:22.640Z,20.23
2022-10-31T13:44:02.579Z,22.13
2022-10-31T13:46:40.598Z,20.83
2022-10-31T13:49:44.244Z,20.23
2022-10-31T13:52:22.920Z,22.53
2022-10-31T13:54:57.245Z,20.80
2022-10-31T13:57:42.718Z,21.27
2022-10-31T14:00:26.786Z,21.43
2022-10-31T14:02:57.579Z,19.80
2022-10-31T14:05:43.200Z,19.50
2022-10-31T14:08:21.846Z,18.77
2022-10-31T14:10:52.020Z,19.40
2022-10-31T14:13:38.433Z,18.50
2022-10-31T14:16:25.739Z,19.13
2022-10-31T14:19:03.461Z,21.60
2022-10-31T14:21:40.057Z,21.63
2022-10-31T14:24:45.413Z,23.73
2022-10-31T14:27:46.550Z,21.97
2022-10-31T14:30:19.044Z,20.43
2022-10-31T14:32:51.582Z,23.13
2022-10-31T14:35:21.332Z,24.27
2022-10-31T14:38:33.197Z,22.27
2022-10-31T14:41:16.726Z,23.63
2022-10-31T14:43:53.424Z,24.73
2022-10-31T14:46:58.353Z,22.47
2022-10-31T14:50:03.833Z,23.40
2022-10-31T14:52:31.234Z,21.53
2022-10-31T14:55:00.349Z,24.77
2022-10-31T14:57:34.084Z,25.27
2022-10-31T15:00:06.513Z,21.27
2022-10-31T15:03:19.826Z,19.37
2022-10-31T15:05:55.391Z,21.10
2022-10-31T15:09:07.510Z,20.73
2022-10-31T15:11:39.331Z,20.50
2022-10-31T15:14:31.211Z,22.37
2022-10-31T15:16:59.653Z,22.57
2022-10-31T15:19:29.709Z,22.80
2022-10-31T15:21:58.529Z,23.00
2022-10-31T15:24:44.531Z,22.50
2022-10-31T15:27:18.641Z,22.80
2022-10-31T15:29:53.488Z,25.70
2022-10-31T15:32:26.159Z,23.93
2022-10-31T15:34:54.261Z,23.90
2022-10-31T15:37:23.410Z,23.70
2022-10-31T15:39:51.010Z,21.87
2022-10-31T15:42:34.641Z,21.30
2022-10-31T15:45:26.519Z,21.50
2022-10-31T15:48:02.727Z,21.90
2022-10-31T15:50:41.640Z,22.60
2022-10-31T15:53:20.521Z,22.77
2022-10-31T15:56:01.852Z,21.27
2022-10-31T15:58:29.942Z,21.47
2022-10-31T16:01:21.090Z,21.03
2022-10-31T16:04:00.742Z,21.40
2022-10-31T16:06:27.955Z,20.37
2022-10-31T16:08:55.577Z,23.83
2022-10-31T16:11:24.822Z,21.03
2022-10-31T16:14:08.474Z,21.37
2022-10-31T16:16:45.400Z,19.40
2022-10-31T16:19:36.353Z,22.10
2022-10-31T16:22:11.066Z,19.90
2022-10-31T16:25:01.646Z,21.10
2022-10-31T16:27:32.227Z,19.00
2022-10-31T16:30:05.368Z,22.97
2022-10-31T16:32:36.811Z,26.33
2022-10-31T16:35:32.731Z,26.73
2022-10-31T16:37:59.709Z,29.43
2022-10-31T16:40:27.054Z,27.03
2022-10-31T16:42:54.521Z,23.13
2022-10-31T16:45:30.858Z,26.00
2022-10-31T16:48:07.331Z,28.07
2022-10-31T16:50:34.328Z,23.40
2022-10-31T16:53:13.493Z,22.13
2022-10-31T16:56:02.323Z,22.77
2022-10-31T16:58:32.369Z,23.20
2022-10-31T17:01:03.914Z,25.10
2022-10-31T17:03:31.461Z,25.33
2022-10-31T17:05:58.422Z,24.67
2022-10-31T17:08:26.133Z,23.80
2022-10-31T17:10:58.563Z,22.33
2022-10-31T17:13:31.272Z,20.20
2022-10-31T17:16:00.657Z,21.97
2022-10-31T17:18:28.184Z,21.73
2022-10-31T17:21:00.450Z,20.10
2022-10-31T17:23:28.804Z,19.73
2022-10-31T17:25:56.612Z,20.73
2022-10-31T17:28:23.658Z,19.60
2022-10-31T17:30:50.656Z,18.90
2022-10-31T17:33:18.165Z,18.40
2022-10-31T17:35:45.623Z,18.20
2022-10-31T17:38:12.959Z,18.13
2022-10-31T17:40:44.264Z,16.23
2022-10-31T17:43:11.890Z,16.03
2022-10-31T17:45:41.361Z,15.60
2022-10-31T17:48:11.621Z,15.87
2022-10-31T17:50:38.636Z,14.73
2022-10-31T17:53:05.614Z,17.10
2022-10-31T17:55:36.230Z,18.07
2022-10-31T17:58:04.810Z,17.00
2022-10-31T18:00:31.938Z,18.70
2022-10-31T18:02:59.313Z,17.67
2022-10-31T18:05:26.508Z,17.47
2022-10-31T18:07:53.456Z,14.83
2022-10-31T18:10:20.497Z,16.10
2022-10-31T18:12:48.895Z,15.10
2022-10-31T18:15:16.486Z,16.07
2022-10-31T18:17:43.893Z,16.03
2022-10-31T18:20:11.656Z,16.40
2022-10-31T18:22:38.573Z,15.40
2022-10-31T18:25:05.998Z,16.30
2022-10-31T18:27:32.943Z,15.97
2022-10-31T18:29:59.877Z,15.57
2022-10-31T18:32:26.937Z,16.50
2022-10-31T18:34:53.921Z,15.40
2022-10-31T18:37:21.188Z,17.03
2022-10-31T18:39:48.084Z,16.30
2022-10-31T18:42:15.075Z,15.73
2022-10-31T18:44:41.972Z,14.37
2022-10-31T18:47:09.001Z,13.83
2022-10-31T18:49:36.977Z,14.60
2022-10-31T18:52:05.178Z,15.00
2022-10-31T18:54:32.245Z,15.70
2022-10-31T18:56:59.444Z,14.50
2022-10-31T18:59:26.322Z,17.73
2022-10-31T19:01:53.406Z,15.90
2022-10-31T19:04:20.586Z,16.30
2022-10-31T19:06:47.525Z,15.60
2022-10-31T19:09:14.737Z,15.60
2022-10-31T19:11:42.060Z,14.57
2022-10-31T19:14:11.146Z,15.73
2022-10-31T19:16:38.064Z,15.60
2022-10-31T19:19:05.213Z,15.77
2022-10-31T19:21:32.592Z,15.83
2022-10-31T19:24:00.154Z,14.53
2022-10-31T19:26:28.109Z,14.70
2022-10-31T19:28:56.491Z,15.77
2022-10-31T19:31:23.754Z,14.80
2022-10-31T19:33:50.736Z,14.03
2022-10-31T19:36:19.145Z,14.80
2022-10-31T19:38:51.929Z,16.03
2022-10-31T19:41:24.673Z,13.97
2022-10-31T19:43:52.097Z,17.40
2022-10-31T19:46:33.813Z,19.97
2022-10-31T19:49:09.480Z,25.50
2022-10-31T19:51:36.776Z,23.57
2022-10-31T19:54:03.828Z,24.13
2022-10-31T19:56:31.264Z,23.40
2022-10-31T19:58:59.875Z,23.07
2022-10-31T20:01:26.971Z,19.97
2022-10-31T20:03:53.932Z,22.63
2022-10-31T20:06:47.270Z,21.27
2022-10-31T20:09:15.097Z,19.03
2022-10-31T20:11:44.273Z,17.30
2022-10-31T20:14:13.633Z,17.20
2022-10-31T20:16:40.612Z,18.80
2022-10-31T20:19:08.039Z,23.77
2022-10-31T20:21:39.755Z,24.33
2022-10-31T20:24:08.930Z,30.93
2022-10-31T20:26:36.701Z,16.70
2022-10-31T20:29:04.132Z,18.20
2022-10-31T20:31:34.045Z,15.80
2022-10-31T20:34:01.425Z,13.53
2022-10-31T20:36:31.441Z,14.00
2022-10-31T20:38:58.781Z,15.20
2022-10-31T20:41:26.356Z,14.40
2022-10-31T20:43:53.322Z,14.67
2022-10-31T20:46:24.798Z,14.33
2022-10-31T20:48:52.719Z,15.97
2022-10-31T20:51:26.451Z,17.80
2022-10-31T20:53:55.222Z,17.83
2022-10-31T20:56:24.554Z,16.40
2022-10-31T20:58:52.226Z,16.80
2022-10-31T21:01:22.766Z,15.87
2022-10-31T21:03:50.634Z,16.43
2022-10-31T21:06:18.700Z,14.40
2022-10-31T21:08:46.117Z,15.27
2022-10-31T21:11:16.572Z,12.73
2022-10-31T21:13:45.282Z,13.83
2022-10-31T21:16:14.593Z,13.77
2022-10-31T21:18:43.205Z,11.67
2022-10-31T21:21:15.616Z,11.80
2022-10-31T21:23:43.193Z,10.73
2022-10-31T21:26:13.621Z,12.53
2022-10-31T21:28:41.036Z,10.90
2022-10-31T21:31:13.537Z,9.80
2022-10-31T21:33:41.276Z,10.47
2022-10-31T21:36:08.868Z,7.77
2022-10-31T21:38:36.584Z,8.63
2022-10-31T21:41:08.624Z,8.10
2022-10-31T21:43:37.655Z,8.67
2022-10-31T21:46:10.168Z,7.23
2022-10-31T21:48:42.344Z,8.00
2022-10-31T21:51:14.695Z,8.70
2022-10-31T21:54:00.566Z,7.80
2022-10-31T21:56:28.334Z,7.20
2022-10-31T21:58:56.265Z,7.03
2022-10-31T22:01:24.977Z,8.00
2022-10-31T22:03:52.286Z,7.70
2022-10-31T22:06:19.330Z,8.80
2022-10-31T22:08:46.503Z,10.07
2022-10-31T22:11:16.832Z,9.10
2022-10-31T22:13:45.487Z,9.67
2022-10-31T22:16:15.081Z,9.50
2022-10-31T22:18:42.760Z,9.63
2022-10-31T22:21:16.883Z,8.90
2022-10-31T22:23:44.087Z,9.03
2022-10-31T22:26:16.341Z,8.70
2022-10-31T22:28:48.973Z,9.60
2022-10-31T22:31:20.480Z,9.37
2022-10-31T22:33:47.781Z,12.87
2022-10-31T22:36:18.337Z,13.60
2022-10-31T22:38:46.574Z,14.03
2022-10-31T22:41:19.707Z,13.80
2022-10-31T22:43:47.143Z,13.30
2022-10-31T22:46:20.016Z,14.90
2022-10-31T22:48:52.432Z,12.90
2022-10-31T22:51:33.628Z,12.03
2022-10-31T22:54:00.950Z,10.10
2022-10-31T22:56:31.235Z,9.50
2022-10-31T22:58:59.188Z,10.47
2022-10-31T23:01:29.287Z,8.23
2022-10-31T23:03:56.503Z,8.70
2022-10-31T23:06:25.822Z,8.77
2022-10-31T23:08:53.616Z,8.70
2022-10-31T23:11:27.247Z,8.30
2022-10-31T23:14:09.114Z,8.97
2022-10-31T23:16:56.983Z,9.07
2022-10-31T23:19:29.511Z,8.83
2022-10-31T23:22:02.479Z,8.80
2022-10-31T23:24:39.416Z,9.10
2022-10-31T23:27:21.245Z,8.43
2022-10-31T23:29:53.261Z,8.10
2022-10-31T23:32:35.377Z,9.23
2022-10-31T23:35:10.318Z,7.90
2022-10-31T23:37:38.756Z,7.87
2022-10-31T23:40:08.756Z,7.07
2022-10-31T23:42:36.032Z,8.10
2022-10-31T23:45:05.875Z,6.60
2022-10-31T23:47:32.685Z,6.27
2022-10-31T23:49:59.589Z,5.90
2022-10-31T23:52:26.535Z,5.60
2022-10-31T23:54:53.412Z,7.07
2022-10-31T23:57:20.350Z,6.00
2022-10-31T23:59:48.067Z,6.23
